Time;durP1;ratioP1;P1;durP2;ratioP2;P2;SDS_P1;SDS_P2;PMS_P1;PMS_P2;Temp;Humidity;BMP_temperature;BMP_pressure;BME280_temperature;BME280_humidity;BME280_pressure;Samples;Min_cycle;Max_cycle;Signal;HPM_P1;HPM_P2
2022/01/26 00:07:16;;;;;;;;;58.00;40.00;;;;;3.86;67.97;103140.41;5101322;27;45400;-49
2022/01/26 00:09:42;;;;;;;;;36.75;29.00;;;;;3.83;68.37;103135.22;5100807;27;46963;-49
2022/01/26 00:12:09;;;;;;;;;43.00;31.75;;;;;3.81;67.96;103129.16;5100692;27;45382;-53
2022/01/26 00:14:34;;;;;;;;;41.50;33.25;;;;;3.80;67.53;103136.19;5101162;27;45411;-56
2022/01/26 00:17:01;;;;;;;;;43.50;36.75;;;;;3.78;68.28;103142.41;5101447;27;45317;-49
2022/01/26 00:19:42;;;;;;;;;46.00;34.25;;;;;3.79;68.11;103142.34;5101093;27;45421;-47
2022/01/26 00:22:07;;;;;;;;;45.25;31.50;;;;;3.80;68.56;103145.88;5101025;27;45216;-58
2022/01/26 00:31:12;;;;;;;;;57.75;33.25;;;;;3.70;67.76;103138.22;5017583;28;45957;-58
2022/01/26 00:41:03;;;;;;;;;45.50;27.75;;;;;3.61;68.16;103154.25;5017607;28;45765;-49
2022/01/26 00:43:29;;;;;;;;;39.50;30.00;;;;;3.59;67.32;103152.59;5017520;28;45538;-48
2022/01/26 00:45:57;;;;;;;;;41.50;29.75;;;;;3.58;68.35;103150.84;5017819;28;45360;-59
2022/01/26 00:48:24;;;;;;;;;29.00;24.50;;;;;3.56;67.66;103148.28;5018001;28;45564;-51
2022/01/26 00:50:52;;;;;;;;;42.00;31.75;;;;;3.54;68.02;103155.34;5017597;28;45389;-50
2022/01/26 00:53:26;;;;;;;;;34.50;25.75;;;;;3.53;67.68;103148.34;5018663;28;45203;-49
2022/01/26 00:55:52;;;;;;;;;29.75;20.50;;;;;3.52;68.49;103151.88;5022919;28;45331;-48
2022/01/26 00:58:17;;;;;;;;;42.50;31.50;;;;;3.52;67.67;103151.88;5019772;28;45480;-54
2022/01/26 01:00:43;;;;;;;;;44.25;28.00;;;;;3.51;68.69;103150.16;5020338;28;45863;-49
2022/01/26 01:03:08;;;;;;;;;31.50;27.00;;;;;3.47;68.19;103145.91;5017764;28;45496;-56
2022/01/26 01:05:44;;;;;;;;;27.50;24.75;;;;;3.50;67.95;103153.72;5058096;27;45492;-59
2022/01/26 01:08:14;;;;;;;;;36.00;28.00;;;;;3.42;68.18;103137.28;5100790;27;45443;-59
2022/01/26 01:10:40;;;;;;;;;39.00;27.75;;;;;3.45;67.79;103134.53;5100149;27;46634;-57
2022/01/26 01:13:13;;;;;;;;;49.25;35.00;;;;;3.51;67.83;103139.66;5100494;27;45325;-58
2022/01/26 01:15:39;;;;;;;;;40.00;30.00;;;;;3.55;68.17;103145.69;5100602;27;45341;-58
2022/01/26 01:18:21;;;;;;;;;42.75;29.50;;;;;3.50;68.42;103136.16;5099654;27;45432;-59
2022/01/26 01:30:58;;;;;;;;;35.75;29.75;;;;;3.52;68.92;103132.59;5099755;27;45826;-49
2022/01/26 01:33:31;;;;;;;;;38.50;30.25;;;;;3.54;68.24;103149.19;5099993;27;45413;-46
2022/01/26 01:35:58;;;;;;;;;40.00;31.25;;;;;3.53;68.89;103150.13;5100107;27;45372;-53
2022/01/26 01:38:27;;;;;;;;;43.75;30.00;;;;;3.23;68.05;103116.69;5100109;27;45383;-48
2022/01/26 01:40:52;;;;;;;;;32.50;29.50;;;;;3.54;67.82;103154.47;5099375;27;45361;-50
2022/01/26 01:43:20;;;;;;;;;37.25;27.00;;;;;3.50;68.09;103144.06;5099807;27;45335;-50
2022/01/26 01:45:50;;;;;;;;;40.00;32.00;;;;;3.53;68.08;103143.09;5099762;27;45321;-49
2022/01/26 01:48:20;;;;;;;;;36.25;28.25;;;;;3.54;68.14;103146.56;5100081;27;45271;-47
2022/01/26 01:50:47;;;;;;;;;44.75;29.50;;;;;3.55;67.73;103148.31;5099451;27;46392;-49
2022/01/26 01:53:15;;;;;;;;;46.75;32.50;;;;;3.55;68.36;103156.22;5100001;27;45426;-53
2022/01/26 01:55:43;;;;;;;;;31.00;24.50;;;;;3.54;68.56;103157.09;5098951;27;45444;-49
2022/01/26 01:58:09;;;;;;;;;33.50;25.00;;;;;3.49;68.02;103165.97;5081579;27;45408;-48
2022/01/26 02:00:36;;;;;;;;;43.25;33.50;;;;;3.48;68.49;103163.41;5099478;27;46120;-49
2022/01/26 02:03:02;;;;;;;;;35.00;28.00;;;;;3.44;68.71;103154.72;5099441;27;45455;-50
2022/01/26 02:05:28;;;;;;;;;42.00;28.75;;;;;3.41;68.52;103161.84;5099515;27;45360;-49
2022/01/26 02:07:53;;;;;;;;;35.50;29.25;;;;;3.38;68.67;103164.56;5099838;27;45453;-50
2022/01/26 02:10:22;;;;;;;;;34.00;22.75;;;;;3.36;67.65;103172.47;5099036;27;46212;-49
2022/01/26 02:12:51;;;;;;;;;37.75;29.25;;;;;3.28;68.11;103166.56;5098088;27;45259;-50
2022/01/26 02:15:22;;;;;;;;;30.75;27.50;;;;;3.26;68.71;103165.75;5099404;27;45406;-50
2022/01/26 02:55:37;;;;;;;;;25.50;23.25;;;;;3.16;68.96;103144.09;5098585;27;45234;-47
2022/01/26 03:00:57;;;;;;;;;27.25;24.50;;;;;3.24;68.59;103150.03;5098824;27;45320;-50
2022/01/26 03:03:27;;;;;;;;;29.75;21.25;;;;;3.32;68.47;103154.19;5098442;27;47254;-47
2022/01/26 03:06:02;;;;;;;;;27.75;23.25;;;;;3.29;68.23;103146.38;5098642;27;45348;-46
2022/01/26 03:08:34;;;;;;;;;32.75;25.50;;;;;3.30;67.88;103146.34;5098680;27;45368;-47
2022/01/26 03:11:06;;;;;;;;;34.50;29.25;;;;;3.31;68.18;103150.69;5098683;27;45385;-49
2022/01/26 03:13:34;;;;;;;;;34.50;29.75;;;;;3.30;67.96;103138.47;5098260;27;45431;-48
2022/01/26 03:16:10;;;;;;;;;40.25;31.25;;;;;3.28;68.55;103134.13;5098489;27;45232;-50
2022/01/26 03:34:33;;;;;;;;;22.00;20.25;;;;;3.32;68.69;103136.63;5015002;28;46194;-47
2022/01/26 03:37:04;;;;;;;;;36.75;25.50;;;;;3.35;68.84;103133.94;5014913;28;45794;-48
2022/01/26 03:39:32;;;;;;;;;31.50;28.25;;;;;3.38;68.51;103133.00;5014893;28;45289;-48
2022/01/26 03:42:08;;;;;;;;;31.75;22.50;;;;;3.37;68.26;103120.72;5014765;28;45647;-49
2022/01/26 03:44:34;;;;;;;;;35.00;26.00;;;;;3.38;68.56;103127.75;5014624;28;47276;-49
2022/01/26 03:47:00;;;;;;;;;35.75;26.50;;;;;3.35;68.13;103122.53;5015118;28;45807;-46
2022/01/26 03:49:26;;;;;;;;;34.25;22.25;;;;;3.06;68.25;103071.59;5014905;28;45504;-57
2022/01/26 03:51:52;;;;;;;;;37.25;25.00;;;;;3.38;68.54;103127.75;5015021;28;45475;-49
2022/01/26 03:54:19;;;;;;;;;37.75;28.75;;;;;3.39;68.57;103135.56;5014690;28;46333;-50
2022/01/26 03:56:44;;;;;;;;;44.75;30.50;;;;;3.41;68.53;103135.53;5014548;28;46226;-49
2022/01/26 03:59:10;;;;;;;;;38.50;25.75;;;;;3.41;68.26;103144.31;5015092;28;45283;-49
2022/01/26 04:01:36;;;;;;;;;36.75;31.50;;;;;3.38;68.88;103138.25;5052294;27;45238;-49
2022/01/26 04:04:02;;;;;;;;;47.75;36.75;;;;;3.42;68.77;103132.00;5097350;27;46118;-51
2022/01/26 04:06:30;;;;;;;;;41.50;32.75;;;;;3.49;68.22;103141.44;5097631;27;45361;-48
2022/01/26 04:08:56;;;;;;;;;45.75;29.50;;;;;3.47;68.64;103132.75;5097699;27;45332;-46
2022/01/26 04:13:49;;;;;;;;;44.50;33.50;;;;;3.53;67.96;103136.97;5097677;27;46215;-48
2022/01/26 04:16:14;;;;;;;;;39.25;30.50;;;;;3.54;67.69;103129.03;5097544;27;45527;-49
2022/01/26 04:18:41;;;;;;;;;45.75;38.50;;;;;3.56;68.04;103124.59;5097783;27;45658;-48
2022/01/26 04:21:24;;;;;;;;;34.75;26.75;;;;;3.54;67.38;103120.25;5097766;27;45242;-49
2022/01/26 04:23:58;;;;;;;;;44.25;35.00;;;;;3.57;67.52;103122.81;5079123;27;46975;-46
2022/01/26 04:26:30;;;;;;;;;38.50;35.75;;;;;3.57;67.77;103120.19;5097447;27;45575;-51
2022/01/26 04:29:01;;;;;;;;;44.75;35.00;;;;;3.55;67.53;103120.22;5097668;27;45418;-51
2022/01/26 04:31:27;;;;;;;;;47.75;30.25;;;;;3.60;67.45;103128.00;5097919;27;45233;-51
2022/01/26 04:33:53;;;;;;;;;50.75;35.50;;;;;3.52;67.38;103115.06;5098938;27;46813;-48
2022/01/26 04:36:45;;;;;;;;;50.00;35.50;;;;;3.61;67.49;103133.22;5100831;27;45424;-51
2022/01/26 04:39:12;;;;;;;;;53.50;40.00;;;;;3.61;67.23;103127.94;5097026;27;45350;-49
2022/01/26 04:41:48;;;;;;;;;49.75;39.50;;;;;3.57;66.81;103113.13;5097367;27;45361;-55
2022/01/26 04:44:21;;;;;;;;;47.75;37.25;;;;;3.63;67.09;103115.63;5097091;27;45404;-47
2022/01/26 04:46:46;;;;;;;;;45.75;35.25;;;;;3.66;67.19;103119.91;5097346;27;45235;-50
2022/01/26 04:49:12;;;;;;;;;47.00;41.50;;;;;3.66;66.80;103118.13;5097183;27;45354;-49
2022/01/26 04:51:37;;;;;;;;;55.25;40.25;;;;;3.68;67.31;103118.97;5078919;27;45338;-49
2022/01/26 04:54:02;;;;;;;;;49.50;41.00;;;;;3.70;67.76;103119.78;5100810;27;45274;-50
2022/01/26 04:56:28;;;;;;;;;49.75;37.25;;;;;3.70;66.33;103118.91;5100414;27;45458;-50
2022/01/26 04:58:53;;;;;;;;;55.00;33.50;;;;;3.70;66.85;103111.88;5082246;27;45236;-50
2022/01/26 05:01:19;;;;;;;;;41.00;31.00;;;;;3.72;66.36;103115.34;5100711;27;45443;-50
2022/01/26 05:03:44;;;;;;;;;39.00;26.25;;;;;3.71;66.20;103110.13;5100131;27;46857;-50
2022/01/26 05:06:10;;;;;;;;;39.75;36.25;;;;;3.71;65.41;103110.13;5100731;27;45304;-55
2022/01/26 05:08:36;;;;;;;;;53.00;37.25;;;;;3.70;65.90;103114.50;5100540;27;45270;-50
2022/01/26 05:11:03;;;;;;;;;32.75;22.50;;;;;3.69;65.90;103118.06;5100455;27;45354;-50
2022/01/26 05:13:28;;;;;;;;;43.25;32.25;;;;;3.62;65.73;103108.59;5100321;27;45877;-50
2022/01/26 05:15:53;;;;;;;;;56.75;38.75;;;;;3.68;66.16;103112.84;5100403;27;45313;-50
2022/01/26 05:18:19;;;;;;;;;57.25;42.75;;;;;3.66;66.36;103112.03;5100442;27;45801;-48
2022/01/26 05:20:44;;;;;;;;;53.75;35.25;;;;;3.69;66.65;103112.78;5100352;27;45428;-49
2022/01/26 05:23:10;;;;;;;;;51.00;41.50;;;;;3.70;65.27;103113.66;5100084;27;46991;-50
2022/01/26 05:25:35;;;;;;;;;53.25;42.00;;;;;3.71;65.71;103113.63;5100069;27;45420;-49
2022/01/26 05:28:01;;;;;;;;;65.25;44.50;;;;;3.65;66.68;103089.25;5100095;27;45413;-51
2022/01/26 05:30:27;;;;;;;;;63.25;42.50;;;;;3.69;65.57;103097.00;5100418;27;45322;-51
2022/01/26 05:32:53;;;;;;;;;59.25;44.75;;;;;3.75;65.43;103111.78;5099836;27;46105;-48
2022/01/26 05:35:19;;;;;;;;;71.25;47.25;;;;;3.75;65.43;103107.38;5099789;27;45239;-51
2022/01/26 05:37:44;;;;;;;;;65.50;44.50;;;;;3.78;65.78;103097.63;5099991;27;45410;-51
2022/01/26 05:40:11;;;;;;;;;51.00;39.25;;;;;3.73;65.78;103081.97;5099983;27;45365;-49
2022/01/26 05:42:37;;;;;;;;;50.75;40.50;;;;;3.83;66.04;103087.84;5099567;27;46146;-53
2022/01/26 05:45:06;;;;;;;;;54.75;44.75;;;;;3.83;65.86;103093.09;5099591;27;45468;-48
2022/01/26 05:47:33;;;;;;;;;63.75;43.25;;;;;3.79;65.93;103084.41;5099566;27;45294;-49
2022/01/26 05:50:00;;;;;;;;;55.00;42.00;;;;;3.85;65.61;103089.53;5100021;27;45473;-54
2022/01/26 05:52:25;;;;;;;;;60.00;42.25;;;;;3.86;66.25;103090.38;5099534;27;47068;-48
2022/01/26 05:54:51;;;;;;;;;57.00;39.50;;;;;3.89;65.49;103092.94;5099695;27;45302;-50
2022/01/26 05:57:16;;;;;;;;;57.50;40.00;;;;;3.90;65.58;103095.50;5099698;27;45416;-49
2022/01/26 05:59:42;;;;;;;;;47.25;37.25;;;;;3.90;65.13;103095.50;5099700;27;45412;-49
2022/01/26 06:02:07;;;;;;;;;55.00;41.00;;;;;3.90;65.73;103090.25;5099419;27;46185;-48
2022/01/26 06:04:33;;;;;;;;;58.00;40.00;;;;;3.89;65.31;103090.31;5098930;27;45339;-47
2022/01/26 06:06:58;;;;;;;;;63.75;44.25;;;;;3.87;65.26;103102.63;5099580;27;45364;-48
2022/01/26 06:09:24;;;;;;;;;63.75;46.75;;;;;3.89;66.09;103096.44;5099510;27;45453;-48
2022/01/26 06:11:49;;;;;;;;;65.00;48.25;;;;;3.90;65.40;103099.91;5099106;27;46131;-48
2022/01/26 06:14:15;;;;;;;;;58.00;45.25;;;;;3.92;65.27;103104.25;5099305;27;45267;-49
2022/01/26 06:16:40;;;;;;;;;69.75;48.50;;;;;3.91;66.12;103099.00;5099247;27;45508;-48
2022/01/26 06:19:05;;;;;;;;;62.75;48.00;;;;;3.94;66.00;103110.31;5099383;27;45312;-49
2022/01/26 06:21:31;;;;;;;;;59.00;44.25;;;;;3.92;66.04;103116.56;5098908;27;47129;-48
2022/01/26 06:23:57;;;;;;;;;65.50;47.50;;;;;3.87;65.79;103105.25;5099052;27;45405;-50
2022/01/26 06:26:22;;;;;;;;;65.50;46.75;;;;;3.97;66.33;103117.25;5099251;27;45258;-48
2022/01/26 06:28:48;;;;;;;;;64.25;47.75;;;;;4.00;66.27;103131.22;5099265;27;45214;-49
2022/01/26 06:31:15;;;;;;;;;58.75;45.25;;;;;4.02;65.38;103132.94;5099004;27;46119;-49
2022/01/26 06:33:42;;;;;;;;;71.50;48.00;;;;;4.02;65.60;103149.59;5080438;27;45346;-48
2022/01/26 06:36:12;;;;;;;;;63.25;45.50;;;;;4.01;65.02;103155.78;5098979;27;45414;-50
2022/01/26 06:38:42;;;;;;;;;52.50;44.00;;;;;4.00;64.95;103157.56;5099140;27;45426;-50
2022/01/26 06:41:08;;;;;;;;;53.75;43.50;;;;;3.96;65.96;103155.91;5098297;27;47011;-48
2022/01/26 06:43:34;;;;;;;;;59.25;42.75;;;;;3.99;65.36;103155.78;5098841;27;45454;-48
2022/01/26 06:46:03;;;;;;;;;64.00;46.00;;;;;3.97;65.26;103162.03;5098795;27;45452;-49
2022/01/26 06:51:03;;;;;;;;;58.75;43.75;;;;;3.82;66.10;103151.94;5098426;27;45904;-48
2022/01/26 06:53:28;;;;;;;;;62.50;46.25;;;;;3.91;66.19;103173.59;5098804;27;45350;-48
2022/01/26 06:55:54;;;;;;;;;66.00;47.75;;;;;3.93;65.12;103178.84;5098741;27;45224;-49
2022/01/26 06:58:19;;;;;;;;;70.75;47.50;;;;;3.91;65.88;103168.31;5098654;27;45430;-48
2022/01/26 07:00:45;;;;;;;;;64.25;45.25;;;;;3.93;65.58;103168.31;5098584;27;45991;-50
2022/01/26 07:03:11;;;;;;;;;55.25;40.75;;;;;3.91;65.21;103167.47;5098367;27;45423;-48
2022/01/26 07:05:36;;;;;;;;;63.75;47.00;;;;;3.88;66.24;103178.09;5098351;27;45467;-49
2022/01/26 07:08:02;;;;;;;;;68.50;47.00;;;;;3.86;66.02;103175.50;5098432;27;45313;-48
2022/01/26 07:10:28;;;;;;;;;61.00;46.25;;;;;3.83;66.14;103167.69;5098498;27;46167;-47
2022/01/26 07:12:54;;;;;;;;;60.25;45.50;;;;;3.80;66.08;103162.53;5098261;27;45331;-50
2022/01/26 07:23:29;;;;;;;;;73.75;48.00;;;;;3.94;65.61;103175.28;5055421;28;45523;-49
2022/01/26 07:25:54;;;;;;;;;65.50;47.50;;;;;3.93;65.77;103158.63;5055315;28;45459;-46
2022/01/26 07:28:20;;;;;;;;;51.50;44.00;;;;;3.95;66.16;103158.56;5055285;28;45473;-51
2022/01/26 07:30:45;;;;;;;;;66.50;47.25;;;;;3.93;66.00;103166.53;5055290;28;45421;-48
2022/01/26 07:33:11;;;;;;;;;65.00;47.00;;;;;3.96;66.43;103173.44;5055148;28;45682;-47
2022/01/26 07:35:36;;;;;;;;;71.00;49.25;;;;;3.86;65.78;103161.47;5055385;28;45397;-51
2022/01/26 07:38:03;;;;;;;;;72.75;48.25;;;;;3.99;65.90;103181.28;5055573;28;45443;-50
2022/01/26 07:40:30;;;;;;;;;65.25;44.75;;;;;4.00;66.38;103181.25;5054699;28;46161;-49
2022/01/26 07:42:56;;;;;;;;;61.50;47.75;;;;;3.92;66.00;103170.06;5054998;28;45315;-51
2022/01/26 07:45:21;;;;;;;;;60.75;46.25;;;;;4.03;65.92;103171.53;5055152;28;45522;-48
2022/01/26 07:47:51;;;;;;;;;67.50;51.00;;;;;4.00;65.98;103170.72;5055390;28;45538;-49
2022/01/26 07:50:17;;;;;;;;;67.25;43.50;;;;;4.05;65.98;103178.47;5054832;28;46111;-49
2022/01/26 07:52:43;;;;;;;;;65.00;46.25;;;;;4.00;65.65;103181.25;5054930;28;45288;-49
2022/01/26 07:55:13;;;;;;;;;64.00;46.50;;;;;4.04;66.74;103184.63;5085501;27;45377;-52
2022/01/26 07:57:38;;;;;;;;;67.75;48.00;;;;;4.06;65.81;103187.25;5097915;27;45281;-48
2022/01/26 08:00:06;;;;;;;;;60.25;44.25;;;;;4.06;66.31;103190.72;5097762;27;45966;-48
2022/01/26 08:02:32;;;;;;;;;71.50;53.00;;;;;4.09;66.65;103197.66;5097640;27;45440;-49
2022/01/26 08:04:57;;;;;;;;;68.50;47.25;;;;;4.09;66.54;103200.28;5097833;27;45313;-49
2022/01/26 08:07:23;;;;;;;;;66.50;48.75;;;;;4.09;65.58;103195.91;5098337;27;45348;-48
2022/01/26 08:09:48;;;;;;;;;59.50;48.75;;;;;4.12;65.49;103189.69;5104388;27;46679;-49
2022/01/26 08:12:15;;;;;;;;;64.00;47.00;;;;;4.11;65.26;103188.81;5106178;27;45311;-50
2022/01/26 08:14:41;;;;;;;;;68.50;51.75;;;;;4.07;65.46;103173.16;5100578;27;45320;-51
2022/01/26 08:17:08;;;;;;;;;77.00;50.75;;;;;4.11;65.54;103167.75;5098104;27;45501;-46
2022/01/26 08:19:34;;;;;;;;;72.50;49.00;;;;;4.12;65.52;103158.06;5097759;27;46164;-56
2022/01/26 08:22:01;;;;;;;;;62.25;47.50;;;;;4.16;65.60;103170.25;5097450;27;45587;-58
2022/01/26 08:24:30;;;;;;;;;69.00;48.75;;;;;4.19;65.88;103171.03;5097639;27;45427;-56
2022/01/26 08:27:00;;;;;;;;;58.75;43.50;;;;;4.21;65.86;103168.31;5099627;27;46126;-55
2022/01/26 08:29:33;;;;;;;;;67.25;47.25;;;;;4.24;65.67;103165.59;5099832;27;45943;-55
2022/01/26 08:31:59;;;;;;;;;71.75;52.00;;;;;4.26;65.27;103166.44;5099845;27;45326;-53
2022/01/26 08:34:24;;;;;;;;;61.00;47.25;;;;;4.30;65.16;103161.91;5100065;27;45556;-49
2022/01/26 08:36:50;;;;;;;;;63.25;50.50;;;;;4.30;65.45;103164.53;5082293;27;45461;-51
2022/01/26 08:39:16;;;;;;;;;71.50;47.75;;;;;4.22;65.57;103170.94;5099739;27;45383;-53
2022/01/26 08:41:43;;;;;;;;;67.00;48.25;;;;;4.34;66.09;103174.09;5098611;27;45457;-48
2022/01/26 08:44:08;;;;;;;;;69.75;50.00;;;;;4.34;65.11;103163.53;5100300;27;45756;-50
2022/01/26 08:46:34;;;;;;;;;68.25;48.00;;;;;4.33;64.43;103159.19;5082697;27;45501;-49
2022/01/26 08:48:59;;;;;;;;;66.25;47.50;;;;;4.30;64.70;103183.00;5100557;27;46276;-54
2022/01/26 08:51:24;;;;;;;;;72.50;50.50;;;;;4.24;64.38;103179.63;5100604;27;45310;-54
2022/01/26 08:53:50;;;;;;;;;74.25;52.75;;;;;4.27;64.71;103183.09;5100672;27;45365;-52
2022/01/26 08:56:16;;;;;;;;;54.75;45.00;;;;;4.14;64.82;103172.06;5100827;27;45240;-57
2022/01/26 08:58:42;;;;;;;;;60.25;47.25;;;;;4.17;64.76;103177.22;5100166;27;46164;-49
2022/01/26 09:01:07;;;;;;;;;74.00;54.50;;;;;4.22;65.62;103193.78;5100050;27;45258;-52
2022/01/26 09:03:38;;;;;;;;;74.00;50.75;;;;;4.26;64.82;103200.69;5100089;27;45169;-53
2022/01/26 09:06:04;;;;;;;;;59.75;46.00;;;;;4.30;65.89;103193.53;5100899;27;45291;-54
2022/01/26 09:08:30;;;;;;;;;66.25;46.75;;;;;4.34;65.48;103192.53;5100093;27;46428;-56
2022/01/26 09:11:00;;;;;;;;;65.75;49.25;;;;;4.35;65.21;103189.88;5100151;27;45365;-51
2022/01/26 09:13:26;;;;;;;;;74.00;47.50;;;;;4.35;64.75;103194.28;5100054;27;45288;-54
2022/01/26 09:15:52;;;;;;;;;59.50;48.75;;;;;4.32;65.38;103189.09;5100511;27;45335;-53
2022/01/26 09:18:30;;;;;;;;;65.50;46.25;;;;;4.26;65.08;103203.34;5100174;27;45462;-52
2022/01/26 09:20:55;;;;;;;;;66.25;47.50;;;;;4.20;64.65;103212.25;5100253;27;45338;-52
2022/01/26 09:23:20;;;;;;;;;60.50;46.50;;;;;4.22;64.64;103215.72;5100108;27;45430;-55
2022/01/26 09:25:46;;;;;;;;;61.25;46.00;;;;;4.23;65.33;103220.06;5100235;27;45419;-55
2022/01/26 09:28:11;;;;;;;;;64.25;48.25;;;;;4.23;64.90;103230.63;5099917;27;45951;-53
2022/01/26 09:30:36;;;;;;;;;63.75;46.25;;;;;4.27;64.66;103220.84;5100136;27;45286;-58
2022/01/26 09:33:02;;;;;;;;;60.25;41.25;;;;;4.27;64.64;103231.41;5100225;27;45233;-53
2022/01/26 09:35:27;;;;;;;;;58.25;43.00;;;;;4.31;65.20;103232.19;5081895;27;45409;-54
2022/01/26 09:37:53;;;;;;;;;69.25;48.00;;;;;4.35;65.33;103228.53;5098260;27;45297;-53
2022/01/26 09:40:18;;;;;;;;;70.75;45.50;;;;;4.39;65.88;103223.13;5099569;27;45358;-51
2022/01/26 09:42:46;;;;;;;;;58.75;47.00;;;;;4.40;64.97;103205.53;5099771;27;45314;-51
2022/01/26 09:45:12;;;;;;;;;60.50;46.00;;;;;4.45;65.47;103216.81;5099682;27;45251;-49
2022/01/26 09:47:38;;;;;;;;;54.00;43.25;;;;;4.50;64.91;103225.44;5099531;27;45928;-49
2022/01/26 09:50:05;;;;;;;;;61.75;44.50;;;;;4.54;65.51;103232.34;5099630;27;45330;-55
2022/01/26 09:52:36;;;;;;;;;65.25;43.75;;;;;4.57;65.52;103234.88;5099126;27;45422;-49
2022/01/26 09:55:05;;;;;;;;;73.75;51.25;;;;;4.59;65.00;103237.47;5099710;27;45512;-52
2022/01/26 09:57:31;;;;;;;;;59.00;48.50;;;;;4.60;64.95;103241.84;5099478;27;47246;-50
2022/01/26 09:59:57;;;;;;;;;70.00;49.50;;;;;4.64;65.71;103246.13;5099194;27;45428;-55
2022/01/26 10:02:29;;;;;;;;;67.75;47.75;;;;;4.69;65.03;103244.19;5099390;27;45235;-50
2022/01/26 10:05:02;;;;;;;;;64.50;47.50;;;;;4.70;64.93;103238.88;5099837;27;45409;-55
2022/01/26 10:07:46;;;;;;;;;65.50;46.00;;;;;4.72;65.49;103247.59;5099113;27;45658;-49
2022/01/26 10:15:37;;;;;;;;;65.50;47.00;;;;;4.78;65.40;103237.78;5099321;27;45460;-52
2022/01/26 10:18:08;;;;;;;;;67.25;50.25;;;;;4.81;65.30;103248.22;5098222;27;46384;-54
2022/01/26 10:20:56;;;;;;;;;64.00;46.25;;;;;4.84;65.44;103248.97;5099293;27;45425;-51
2022/01/26 10:23:24;;;;;;;;;58.25;45.00;;;;;4.85;64.69;103242.81;5098985;27;45342;-50
2022/01/26 10:26:05;;;;;;;;;54.00;44.50;;;;;4.90;65.36;103243.53;5098973;27;45493;-49
2022/01/26 10:28:45;;;;;;;;;62.75;42.75;;;;;4.94;65.36;103246.94;5098710;27;46122;-49
2022/01/26 10:31:15;;;;;;;;;65.25;46.50;;;;;4.98;65.84;103256.47;5098679;27;45413;-52
2022/01/26 10:33:58;;;;;;;;;51.25;39.25;;;;;5.00;64.86;103244.06;5099120;27;45343;-49
2022/01/26 10:36:44;;;;;;;;;54.25;40.50;;;;;5.03;65.30;103233.44;5099120;27;45552;-49
2022/01/26 10:39:12;;;;;;;;;57.50;43.50;;;;;5.06;65.33;103221.94;5098538;27;47220;-50
2022/01/26 10:41:39;;;;;;;;;59.25;43.00;;;;;5.07;65.90;103228.94;5098209;27;45252;-48
2022/01/26 10:44:06;;;;;;;;;61.25;44.00;;;;;5.09;65.12;103242.91;5099180;27;45453;-53
2022/01/26 10:46:39;;;;;;;;;49.75;41.25;;;;;5.10;65.27;103258.72;5098834;27;45492;-48
2022/01/26 10:54:43;;;;;;;;;60.50;47.00;;;;;5.13;65.10;103223.44;5098617;27;45388;-56
2022/01/26 10:57:10;;;;;;;;;60.25;44.75;;;;;5.19;66.11;103239.09;5098361;27;45423;-51
2022/01/26 10:59:41;;;;;;;;;70.50;45.00;;;;;5.19;65.85;103234.66;5098510;27;46229;-49
2022/01/26 11:02:08;;;;;;;;;63.00;47.75;;;;;5.19;65.83;103221.47;5098143;27;45191;-51
2022/01/26 11:04:38;;;;;;;;;66.75;45.25;;;;;5.21;65.38;103231.97;5098692;27;45328;-50
2022/01/26 11:07:08;;;;;;;;;50.00;42.25;;;;;5.22;65.73;103229.28;5098709;27;45306;-50
2022/01/26 11:09:40;;;;;;;;;61.00;46.50;;;;;5.25;65.81;103212.47;5098358;27;45232;-51
2022/01/26 11:12:09;;;;;;;;;58.75;45.50;;;;;5.25;66.04;103202.78;5098594;27;45365;-49
2022/01/26 11:14:50;;;;;;;;;47.25;37.50;;;;;5.30;65.46;103223.72;5098261;27;45439;-47
2022/01/26 11:17:33;;;;;;;;;61.00;41.00;;;;;5.30;65.21;103209.69;5098543;27;45408;-51
2022/01/26 11:19:59;;;;;;;;;61.25;43.25;;;;;5.30;65.30;103201.75;5098166;27;46186;-49
2022/01/26 11:22:28;;;;;;;;;55.00;45.50;;;;;5.24;65.89;103200.19;5098599;27;45345;-50
2022/01/26 11:24:55;;;;;;;;;60.25;43.50;;;;;5.30;65.65;103197.34;5098496;27;45247;-49
2022/01/26 11:27:21;;;;;;;;;62.00;46.50;;;;;5.30;65.50;103196.47;5080296;27;45433;-53
2022/01/26 11:29:52;;;;;;;;;67.75;46.25;;;;;5.31;65.57;103188.53;5098235;27;45327;-53
2022/01/26 11:32:29;;;;;;;;;57.50;37.75;;;;;5.31;65.16;103188.53;5097934;27;45412;-52
2022/01/26 11:34:56;;;;;;;;;53.50;44.75;;;;;5.35;65.60;103197.19;5098366;27;45286;-53
2022/01/26 11:37:39;;;;;;;;;56.50;43.75;;;;;5.31;65.07;103196.44;5098354;27;45477;-52
2022/01/26 11:45:29;;;;;;;;;63.75;44.00;;;;;5.43;65.25;103185.44;5097891;27;45544;-56
2022/01/26 11:48:01;;;;;;;;;68.50;45.75;;;;;5.36;65.62;103161.97;5099085;27;45387;-53
2022/01/26 11:50:29;;;;;;;;;47.00;33.50;;;;;5.44;65.53;103163.44;5098486;27;45446;-48
2022/01/26 11:53:05;;;;;;;;;60.25;45.75;;;;;5.45;65.63;103161.66;5098835;27;45530;-48
2022/01/26 11:55:34;;;;;;;;;52.00;43.25;;;;;5.46;65.44;103155.44;5098045;27;45341;-51
2022/01/26 11:58:16;;;;;;;;;46.00;40.25;;;;;5.47;65.10;103144.81;5098273;27;45350;-49
2022/01/26 12:01:08;;;;;;;;;63.00;45.75;;;;;5.47;65.02;103147.47;5098676;27;45408;-48
2022/01/26 12:03:42;;;;;;;;;69.25;45.25;;;;;5.49;65.12;103142.16;5105233;27;45457;-53
2022/01/26 12:06:13;;;;;;;;;66.00;44.75;;;;;5.52;65.43;103147.31;5105716;27;45295;-54
2022/01/26 12:08:39;;;;;;;;;58.00;44.00;;;;;5.55;64.83;103134.00;5105906;27;45177;-50
2022/01/26 12:11:10;;;;;;;;;61.25;43.75;;;;;5.57;65.00;103131.31;5105706;27;45220;-48
2022/01/26 12:13:38;;;;;;;;;66.00;46.50;;;;;5.58;65.11;103136.53;5104440;27;45436;-53
2022/01/26 12:16:22;;;;;;;;;65.75;45.00;;;;;5.59;65.48;103138.25;5103172;27;45399;-51
2022/01/26 12:19:10;;;;;;;;;68.50;49.25;;;;;5.61;65.17;103140.84;5102340;27;45482;-52
2022/01/26 12:38:10;;;;;;;;;35.75;32.75;;;;;5.70;65.40;103130.78;5101628;27;45394;-54
2022/01/26 12:43:48;;;;;;;;;80.75;56.25;;;;;5.57;63.78;103128.66;5103841;27;45742;-52
2022/01/26 12:46:18;;;;;;;;;77.50;59.25;;;;;5.50;63.48;103141.22;5103585;27;45514;-53
2022/01/26 12:48:50;;;;;;;;;83.00;59.00;;;;;5.39;64.21;103133.66;5103683;27;45422;-52
2022/01/26 12:51:18;;;;;;;;;91.75;60.75;;;;;5.31;64.07;103146.31;5102534;27;45607;-52
2022/01/26 12:53:43;;;;;;;;;88.00;60.50;;;;;5.23;63.84;103140.44;5101211;27;45465;-50
2022/01/26 12:56:13;;;;;;;;;82.75;62.25;;;;;5.18;64.40;103148.50;5102033;27;45318;-50
2022/01/26 12:58:41;;;;;;;;;87.75;62.75;;;;;5.14;64.22;103140.72;5102661;27;45271;-60
2022/01/26 13:01:17;;;;;;;;;82.50;61.00;;;;;5.11;64.03;103125.03;5083284;27;45581;-52
2022/01/26 13:03:42;;;;;;;;;86.50;64.50;;;;;5.12;63.87;103126.75;5101695;27;46524;-51
2022/01/26 13:06:39;;;;;;;;;86.75;58.25;;;;;5.07;65.12;103120.75;5100892;27;45312;-56
2022/01/26 13:09:29;;;;;;;;;86.25;60.50;;;;;5.09;64.22;103125.06;5101226;27;45179;-59
2022/01/26 13:11:56;;;;;;;;;86.00;62.25;;;;;5.07;63.99;103118.97;5103589;27;45427;-53
2022/01/26 13:14:26;;;;;;;;;88.25;62.25;;;;;5.02;64.14;103118.28;5098960;27;46294;-59
2022/01/26 13:17:50;;;;;;;;;82.50;61.25;;;;;4.99;65.08;103113.97;5099602;27;45390;-48
2022/01/26 13:28:24;;;;;;;;;76.00;56.00;;;;;5.08;64.75;103119.84;5100224;27;45322;-59
2022/01/26 13:41:33;;;;;;;;;80.50;55.50;;;;;4.95;64.97;103104.44;5097615;27;45345;-54
2022/01/26 13:47:00;;;;;;;;;84.50;61.25;;;;;5.09;64.47;103116.28;5099415;27;45444;-50
2022/01/26 14:00:06;;;;;;;;;82.50;59.00;;;;;4.91;65.18;103108.09;4993724;28;45733;-48
2022/01/26 14:02:33;;;;;;;;;84.25;63.25;;;;;4.83;65.46;103110.13;4996507;28;45291;-47
2022/01/26 14:04:58;;;;;;;;;82.75;63.00;;;;;4.79;65.09;103108.50;4996848;28;45359;-52
2022/01/26 14:07:23;;;;;;;;;87.25;62.50;;;;;4.80;65.23;103104.94;4996889;28;46098;-58
2022/01/26 14:09:49;;;;;;;;;83.25;62.25;;;;;4.82;65.45;103103.13;4996505;28;45302;-48
2022/01/26 14:12:17;;;;;;;;;81.00;55.25;;;;;4.84;65.25;103101.28;4996659;28;45404;-55